createdAt,value
2022-10-14T08:34:28.018Z,3.72
2022-10-14T08:37:02.844Z,3.98
2022-10-14T08:39:35.937Z,3.30
2022-10-14T08:42:34.720Z,6.08
2022-10-14T08:45:12.749Z,4.70
2022-10-14T08:47:48.911Z,3.80
2022-10-14T08:50:27.578Z,7.08
2022-10-14T08:53:05.919Z,3.35
2022-10-14T08:55:41.239Z,8.20
2022-10-14T08:58:18.555Z,4.22
2022-10-14T09:00:54.309Z,3.15
2022-10-14T09:03:31.303Z,3.33
2022-10-14T09:06:07.359Z,4.25
2022-10-14T09:11:25.224Z,4.47
2022-10-14T09:14:00.593Z,3.80
2022-10-14T09:16:36.768Z,5.28
2022-10-14T09:19:14.193Z,6.72
2022-10-14T09:21:53.098Z,3.92
2022-10-14T09:24:28.774Z,4.00
2022-10-14T09:27:06.085Z,4.37
2022-10-14T09:29:43.528Z,3.33
2022-10-14T09:32:19.888Z,4.67
2022-10-14T09:34:54.910Z,5.23
2022-10-14T09:37:30.350Z,4.40
2022-10-14T09:40:06.292Z,4.83
2022-10-14T09:42:44.599Z,4.67
2022-10-14T09:45:19.691Z,6.33
2022-10-14T09:47:57.002Z,2.25
2022-10-14T09:50:34.133Z,2.67
2022-10-14T09:53:11.141Z,4.78
2022-10-14T09:55:49.256Z,3.12
2022-10-14T09:58:25.805Z,2.90
2022-10-14T10:01:01.546Z,3.87
2022-10-14T10:03:36.435Z,3.70
2022-10-14T10:06:11.684Z,4.58
2022-10-14T10:08:50.960Z,2.77
2022-10-14T10:11:33.500Z,2.35
2022-10-14T10:17:18.812Z,1.92
2022-10-14T10:19:54.281Z,4.47
2022-10-14T10:22:31.238Z,2.80
2022-10-14T10:25:24.364Z,4.78
2022-10-14T10:28:00.724Z,3.27
2022-10-14T10:30:37.539Z,2.95
2022-10-14T10:33:21.656Z,3.52
2022-10-14T10:36:05.463Z,2.30
2022-10-14T10:38:41.712Z,4.35
2022-10-14T10:41:23.525Z,5.05
2022-10-14T10:44:11.157Z,6.92
2022-10-14T10:49:29.733Z,8.05
2022-10-14T10:52:07.582Z,6.10
2022-10-14T10:54:45.109Z,4.80
2022-10-14T10:57:25.105Z,5.42
2022-10-14T11:00:02.197Z,5.10
2022-10-14T11:02:58.648Z,3.52
2022-10-14T11:05:55.022Z,6.10
2022-10-14T11:08:56.417Z,3.62
2022-10-14T11:11:50.104Z,4.05
2022-10-14T11:14:39.825Z,3.02
2022-10-14T11:17:17.134Z,3.33
2022-10-14T11:19:54.044Z,4.05
2022-10-14T11:22:38.718Z,7.22
2022-10-14T11:25:17.856Z,3.33
2022-10-14T11:27:53.880Z,4.30
2022-10-14T11:30:30.772Z,5.65
2022-10-14T11:33:10.660Z,4.22
2022-10-14T11:35:51.807Z,3.85
2022-10-14T11:38:42.970Z,5.65
2022-10-14T11:41:22.123Z,2.98
2022-10-14T11:43:58.612Z,2.80
2022-10-14T11:46:36.484Z,5.03
2022-10-14T11:49:14.586Z,5.10
2022-10-14T11:51:51.171Z,3.50
2022-10-14T11:54:28.782Z,4.58
2022-10-14T11:57:06.198Z,4.72
2022-10-14T11:59:45.268Z,2.83
2022-10-14T12:02:40.854Z,4.50
2022-10-14T12:05:19.097Z,3.65
2022-10-14T12:07:59.887Z,5.53
2022-10-14T12:10:36.281Z,7.15
2022-10-14T12:13:12.730Z,5.75
2022-10-14T12:15:48.865Z,5.05
2022-10-14T12:18:22.958Z,4.70
2022-10-14T12:20:59.073Z,5.12
2022-10-14T12:23:36.293Z,5.42
2022-10-14T12:26:14.024Z,4.20
2022-10-14T12:28:47.646Z,5.00
2022-10-14T12:31:28.129Z,6.25
2022-10-14T12:40:36.903Z,6.10
2022-10-14T12:43:29.792Z,9.98
2022-10-14T12:46:14.946Z,9.83
2022-10-14T12:48:54.954Z,11.95
2022-10-14T12:51:28.375Z,15.00
2022-10-14T12:54:08.761Z,10.43
2022-10-14T12:56:46.316Z,13.13
2022-10-14T12:59:27.383Z,11.57
2022-10-14T13:02:04.613Z,8.93
2022-10-14T13:04:38.159Z,9.68
2022-10-14T13:13:52.607Z,7.70
2022-10-14T13:17:13.501Z,8.40
2022-10-14T13:19:47.285Z,6.58
2022-10-14T13:22:43.827Z,5.85
2022-10-14T13:25:20.260Z,7.50
2022-10-14T13:28:08.366Z,7.65
2022-10-14T13:30:51.788Z,5.75
2022-10-14T13:33:28.844Z,5.70
2022-10-14T13:36:07.437Z,5.42
2022-10-14T13:38:42.544Z,11.75
2022-10-14T13:41:24.668Z,7.65
2022-10-14T13:44:01.769Z,7.33
2022-10-14T13:46:38.523Z,6.92
2022-10-14T13:49:18.931Z,7.12
2022-10-14T13:51:54.119Z,8.55
2022-10-14T13:54:30.583Z,8.00
2022-10-14T13:57:35.041Z,7.95
2022-10-14T14:00:16.152Z,10.53
2022-10-14T14:02:23.983Z,6.05
2022-10-14T14:04:59.769Z,7.80
2022-10-14T14:08:22.162Z,6.95
2022-10-14T14:10:13.410Z,7.20
2022-10-14T14:12:47.518Z,6.40
2022-10-14T14:15:25.763Z,12.85
2022-10-14T14:17:59.045Z,13.45
2022-10-14T14:20:34.135Z,12.63
2022-10-14T14:23:07.355Z,10.08
2022-10-14T14:26:07.402Z,11.53
2022-10-14T14:28:21.395Z,10.90
2022-10-14T14:30:56.763Z,8.73
2022-10-14T14:33:33.877Z,13.08
2022-10-14T14:36:14.696Z,10.88
2022-10-14T14:38:56.337Z,10.32
2022-10-14T14:41:31.562Z,10.43
2022-10-14T14:44:24.736Z,10.10
2022-10-14T14:46:45.215Z,14.28
2022-10-14T14:49:19.616Z,13.95
2022-10-14T14:51:54.098Z,12.45
2022-10-14T14:54:28.940Z,12.37
2022-10-14T14:57:07.361Z,13.00
2022-10-14T14:59:43.463Z,15.53
2022-10-14T15:02:20.237Z,15.00
2022-10-14T15:05:04.541Z,11.10
2022-10-14T15:07:39.925Z,11.88
2022-10-14T15:10:25.322Z,11.53
2022-10-14T15:13:02.845Z,14.63
2022-10-14T15:15:38.866Z,10.98
2022-10-14T15:18:18.615Z,14.90
2022-10-14T15:20:52.558Z,14.87
2022-10-14T15:23:47.002Z,11.95
2022-10-14T15:26:33.576Z,15.25
2022-10-14T15:29:15.539Z,12.85
2022-10-14T15:31:51.089Z,11.90
2022-10-14T15:34:25.147Z,13.78
2022-10-14T15:36:58.602Z,12.30
2022-10-14T15:39:31.832Z,15.50
2022-10-14T15:42:08.605Z,11.00
2022-10-14T15:44:42.138Z,8.15
2022-10-14T15:47:22.670Z,8.15
2022-10-14T15:49:56.667Z,11.65
2022-10-14T15:52:32.430Z,11.15
2022-10-14T15:55:15.274Z,15.45
2022-10-14T15:57:50.122Z,11.53
2022-10-14T16:00:25.114Z,10.32
2022-10-14T16:03:00.095Z,12.10
2022-10-14T16:05:33.735Z,10.68
2022-10-14T16:08:12.276Z,9.08
2022-10-14T16:10:47.367Z,9.40
2022-10-14T16:13:20.618Z,10.35
2022-10-14T16:15:57.175Z,12.88
2022-10-14T16:18:31.017Z,11.40
2022-10-14T16:21:04.403Z,11.63
2022-10-14T16:23:40.243Z,13.53
2022-10-14T16:26:13.866Z,10.32
2022-10-14T16:28:47.747Z,8.90
2022-10-14T16:31:22.873Z,8.95
2022-10-14T16:33:57.634Z,13.50
2022-10-14T16:36:31.692Z,14.75
2022-10-14T16:39:05.863Z,9.68
2022-10-14T16:41:39.278Z,12.47
2022-10-14T16:44:15.028Z,14.45
2022-10-14T16:47:06.275Z,14.30
2022-10-14T16:49:40.505Z,14.90
2022-10-14T16:52:15.173Z,18.77
2022-10-14T16:54:48.693Z,14.23
2022-10-14T16:57:22.427Z,18.42
2022-10-14T17:00:01.747Z,14.30
2022-10-14T17:02:37.697Z,12.10
2022-10-14T17:05:23.125Z,9.40
2022-10-14T17:07:56.821Z,9.88
2022-10-14T17:10:33.989Z,13.03
2022-10-14T17:16:06.603Z,13.35
2022-10-14T17:18:41.642Z,11.08
2022-10-14T17:21:18.285Z,8.30
2022-10-14T17:23:58.394Z,12.20
2022-10-14T17:26:33.932Z,13.62
2022-10-14T17:29:12.553Z,12.85
2022-10-14T17:31:48.877Z,16.23
2022-10-14T17:34:22.640Z,12.03
2022-10-14T17:36:57.210Z,13.62
2022-10-14T17:39:35.364Z,11.97
2022-10-14T17:42:10.263Z,12.33
2022-10-14T17:44:44.384Z,17.73
2022-10-14T17:47:18.995Z,15.95
2022-10-14T17:49:55.348Z,13.55
2022-10-14T17:52:28.922Z,20.68
2022-10-14T17:55:03.324Z,17.12
2022-10-14T17:57:37.476Z,12.93
2022-10-14T18:00:15.258Z,18.15
2022-10-14T18:05:21.053Z,20.02
2022-10-14T18:07:54.326Z,17.52
2022-10-14T18:10:27.781Z,16.50
2022-10-14T18:13:01.347Z,16.07
2022-10-14T18:15:36.356Z,20.00
2022-10-14T18:18:09.607Z,19.95
2022-10-14T18:20:43.120Z,18.70
2022-10-14T18:23:16.232Z,20.50
2022-10-14T18:25:49.459Z,17.82
2022-10-14T18:28:22.787Z,18.27
2022-10-14T18:30:56.153Z,15.95
2022-10-14T18:33:30.807Z,13.98
2022-10-14T18:36:04.461Z,12.85
2022-10-14T18:38:38.110Z,12.90
2022-10-14T18:41:14.025Z,12.37
2022-10-14T18:43:47.537Z,11.55
2022-10-14T18:46:22.487Z,12.58
2022-10-14T18:49:00.597Z,14.80
2022-10-14T18:51:38.232Z,11.90
2022-10-14T18:54:14.850Z,13.60
2022-10-14T18:56:49.163Z,13.60
2022-10-14T18:59:23.943Z,9.43
2022-10-14T19:02:06.583Z,8.75
2022-10-14T19:07:38.191Z,8.80
2022-10-14T19:10:12.263Z,11.33
2022-10-14T19:12:48.859Z,7.78
2022-10-14T19:18:23.227Z,10.58
2022-10-14T19:21:00.605Z,9.28
2022-10-14T19:23:34.820Z,7.70
2022-10-14T19:26:12.506Z,8.20
2022-10-14T19:28:48.738Z,10.95
2022-10-14T19:31:34.077Z,10.25
2022-10-14T19:34:11.372Z,8.58
2022-10-14T19:37:03.191Z,7.00
2022-10-14T19:39:37.597Z,7.67
2022-10-14T19:42:13.210Z,8.78
2022-10-14T19:44:46.642Z,12.20
2022-10-14T19:47:24.815Z,11.60
2022-10-14T19:49:58.966Z,8.20
2022-10-14T19:52:33.270Z,10.18
2022-10-14T19:55:09.932Z,8.45
2022-10-14T19:57:46.439Z,12.05
2022-10-14T20:00:22.183Z,9.73
2022-10-14T20:02:58.819Z,27.52
2022-10-14T20:05:35.221Z,8.20
2022-10-14T20:08:10.948Z,8.05
2022-10-14T20:10:45.661Z,8.10
2022-10-14T20:13:20.100Z,10.40
2022-10-14T20:15:59.130Z,11.85
2022-10-14T20:18:33.628Z,9.20
2022-10-14T20:21:09.670Z,10.05
2022-10-14T20:23:44.857Z,13.50
2022-10-14T20:26:20.520Z,7.60
2022-10-14T20:28:54.919Z,10.40
2022-10-14T20:31:28.692Z,8.33
2022-10-14T20:34:03.483Z,9.53
2022-10-14T20:36:37.786Z,7.90
2022-10-14T20:39:10.935Z,10.55
2022-10-14T20:41:44.769Z,10.13
2022-10-14T20:44:22.994Z,10.25
2022-10-14T20:46:53.601Z,8.48
2022-10-14T20:49:27.197Z,12.40
2022-10-14T20:52:00.240Z,8.10
2022-10-14T20:54:33.598Z,9.58
2022-10-14T20:57:06.807Z,9.68
2022-10-14T20:59:41.645Z,7.97
2022-10-14T21:02:17.798Z,9.75
2022-10-14T21:04:52.285Z,12.00
2022-10-14T21:07:26.037Z,8.20
2022-10-14T21:09:59.523Z,11.90
2022-10-14T21:12:34.434Z,8.58
2022-10-14T21:15:09.663Z,11.57
2022-10-14T21:17:44.297Z,7.22
2022-10-14T21:20:17.868Z,8.83
2022-10-14T21:22:51.527Z,10.48
2022-10-14T21:25:24.701Z,8.40
2022-10-14T21:27:58.457Z,9.83
2022-10-14T21:30:31.669Z,7.75
2022-10-14T21:33:04.788Z,7.35
2022-10-14T21:35:38.565Z,8.25
2022-10-14T21:38:11.784Z,7.03
2022-10-14T21:40:44.969Z,6.62
2022-10-14T21:43:18.487Z,8.10
2022-10-14T21:45:51.850Z,7.30
2022-10-14T21:48:25.557Z,9.88
2022-10-14T21:51:05.283Z,9.38
2022-10-14T21:53:39.103Z,8.70
2022-10-14T21:56:13.954Z,9.68
2022-10-14T21:58:47.298Z,10.55
2022-10-14T22:01:22.753Z,13.72
2022-10-14T22:03:57.765Z,9.63
2022-10-14T22:06:32.201Z,7.75
2022-10-14T22:09:07.636Z,9.68
2022-10-14T22:11:42.517Z,10.32
2022-10-14T22:14:18.507Z,7.40
2022-10-14T22:16:52.089Z,7.20
2022-10-14T22:19:25.756Z,7.22
2022-10-14T22:22:01.401Z,7.72
2022-10-14T22:24:35.013Z,9.40
2022-10-14T22:27:08.227Z,10.60
2022-10-14T22:29:41.677Z,12.82
2022-10-14T22:32:15.501Z,7.50
2022-10-14T22:34:50.850Z,11.33
2022-10-14T22:37:24.545Z,7.03
2022-10-14T22:39:58.317Z,11.85
2022-10-14T22:42:31.983Z,11.30
2022-10-14T22:45:06.532Z,12.25
2022-10-14T22:47:40.011Z,13.10
2022-10-14T22:50:14.037Z,13.85
2022-10-14T22:52:47.660Z,10.98
2022-10-14T22:55:21.259Z,15.00
2022-10-14T22:57:56.561Z,14.07
2022-10-14T23:00:30.069Z,13.38
2022-10-14T23:03:03.907Z,14.47
2022-10-14T23:05:37.206Z,10.28
2022-10-14T23:08:12.270Z,14.60
2022-10-14T23:10:46.008Z,15.05
2022-10-14T23:13:19.483Z,14.15
2022-10-14T23:15:59.533Z,12.23
2022-10-14T23:18:36.051Z,9.23
2022-10-14T23:21:15.210Z,11.60
2022-10-14T23:23:50.193Z,13.43
2022-10-14T23:26:26.112Z,9.25
2022-10-14T23:29:00.778Z,11.38
2022-10-14T23:31:35.814Z,9.08
2022-10-14T23:34:12.221Z,9.95
2022-10-14T23:36:45.665Z,11.68
2022-10-14T23:39:19.449Z,11.63
2022-10-14T23:41:52.619Z,10.38
2022-10-14T23:44:26.322Z,9.58
2022-10-14T23:47:00.239Z,8.88
2022-10-14T23:49:33.862Z,6.55
2022-10-14T23:52:07.387Z,8.18
2022-10-14T23:54:41.225Z,8.93
2022-10-14T23:57:14.629Z,11.18
2022-10-14T23:59:48.183Z,7.15
